2022年9月28日

时间 代码 天气 温度 能见度 天花板 METAR/SPECI
11:00
M
15 °C 9 mi 2.500 ft 330° 330° 13 kt METAR CYHU 281500Z AUTO 33013KT 9SM BKN025 BKN037 BKN050 15/11 A3004 RMK SLP174
10:09
V
14 °C 9 mi 3.600 ft 320° 320° 7 kt METAR CYHU 281409Z AUTO 32007KT 9SM BKN036 BKN055 OVC069 14/11 A3002 RMK SLP169
10:00
V
14 °C 9 mi 3.400 ft 330° 330° 6 kt METAR CYHU 281400Z AUTO 33006KT 9SM -RA OVC034 14/12 A3002 RMK SLP169
09:34
V
14 °C 9 mi 3.400 ft 320° 320° 8 kt METAR CYHU 281334Z AUTO 32008KT 9SM -RA OVC034 14/12 A3001 RMK SLP165
09:00
V
13 °C 7 mi 3.200 ft 310° 310° 5 kt METAR CYHU 281300Z AUTO 31005KT 7SM OVC032 13/12 A2999 RMK SLP160
08:14
V
13 °C 9 mi 3.000 ft 320° 320° 4 kt METAR CYHU 281214Z AUTO 32004KT 9SM BKN030 BKN035 OVC060 13/12 A2997 RMK SLP152
08:00
V
13 °C 9 mi 5.000 ft 340° 340° 4 kt METAR CYHU 281200Z AUTO 34004KT 9SM -RA FEW028 BKN050 OVC066 13/11 A2996 RMK SLP150
07:36
V
13 °C 9 mi 4.400 ft 310° 310° 5 kt METAR CYHU 281136Z AUTO 31005KT 9SM -RA BKN044 OVC055 13/11 A2996 RMK SLP147
07:00
V
12 °C 9 mi 3.700 ft 300° 300° 4 kt METAR CYHU 281100Z AUTO 30004KT 9SM OVC037 12/11 A2994 RMK SLP141
06:00
V
12 °C 9 mi 3.200 ft 290° 290° 3 kt METAR CYHU 281000Z AUTO 29003KT 9SM BKN032 BKN055 BKN089 OVC170 12/11 A2991 RMK SLP132
05:00
V
11 °C 9 mi 8.600 ft 280° 280° 4 kt METAR CYHU 280900Z AUTO 28004KT 9SM OVC086 11/11 A2989 RMK SLP125
04:00
V
12 °C 9 mi 9.100 ft 280° 280° 5 kt METAR CYHU 280800Z AUTO 28005KT 9SM BKN091 12/11 A2987 RMK SLP118
03:06
V
12 °C 9 mi 8.800 ft 300° 300° 5 kt METAR CYHU 280706Z AUTO 30005KT 9SM SCT076 BKN088 12/12 A2986 RMK SLP114
03:00
V
13 °C 9 mi 7.600 ft 300° 300° 4 kt METAR CYHU 280700Z AUTO 30004KT 9SM -RA BKN076 BKN089 13/12 A2986 RMK SLP114
02:50
V
13 °C 9 mi 8.100 ft 290° 290° 5 kt METAR CYHU 280650Z AUTO 29005KT 9SM -RA OVC081 13/12 A2986 RMK SLP113
02:00
V
12 °C 9 mi 8.600 ft 240° 240° 4 kt METAR CYHU 280600Z AUTO 24004KT 9SM OVC086 12/11 A2985 RMK SLP111
01:00
V
11 °C 9 mi - 210° 210° 4 kt METAR CYHU 280500Z AUTO 21004KT 9SM SCT091 11/10 A2984 RMK SLP106
00:00
V
11 °C 9 mi - 190° 190° 5 kt METAR CYHU 280400Z AUTO 19005KT 9SM CLR 11/11 A2983 RMK SLP104

2022年9月27日

时间 代码 天气 温度 能见度 天花板 METAR/SPECI
23:00
V
11 °C 9 mi - 230° 230° 4 kt METAR CYHU 280300Z AUTO 23004KT 9SM CLR 11/10 A2982 RMK SLP100
22:00
V
11 °C 9 mi - 180° 180° 5 kt METAR CYHU 280200Z AUTO 18005KT 9SM CLR 11/10 A2981 RMK SLP095
21:00
V
12 °C 9 mi - 210° 210° 4 kt METAR CYHU 280100Z AUTO 21004KT 9SM CLR 12/11 A2980 RMK SLP092
20:00
V
12 °C 9 mi - 190° 190° 5 kt METAR CYHU 280000Z AUTO 19005KT 9SM CLR 12/11 A2978 RMK SLP088
19:21
V
13 °C 9 mi - 170° 170° 3 kt METAR CYHU 272321Z AUTO 17003KT 9SM FEW050 13/11 A2977 RMK SLP083 DENSITY ALT 100FT
19:18
I
13 °C 3 mi - Var Var 2 kt METAR CYHU 272318Z AUTO VRB02KT 3SM BR CLR 13/11 A2977 RMK SLP083 DENSITY ALT 100FT
19:08
I
14 °C 1¾ mi - Var 000° 0 kt METAR CYHU 272308Z AUTO 00000KT 1 3/4SM BR CLR 14/11 A2977 RMK VIS VRB 1-3 SLP082 DENSITY ALT 200FT
18:58
V
14 °C 5 mi - Var 000° 0 kt METAR CYHU 272258Z AUTO 00000KT 5SM BR CLR 14/12 A2976 RMK SLP081 DENSITY ALT 200FT
18:00
V
16 °C 9 mi - 270° 270° 5 kt METAR CYHU 272200Z AUTO 27005KT 9SM CLR 16/12 A2975 RMK SLP075 DENSITY ALT 500FT
17:00
V
17 °C 9 mi 8.100 ft 250° 250° 10 kt METAR CYHU 272100Z AUTO 25010KT 9SM FEW023 BKN081 17/12 A2973 RMK SLP068 DENSITY ALT 600FT
16:00
V
16 °C 9 mi 7.600 ft 260° 260° 12 kt METAR CYHU 272000Z AUTO 26012KT 9SM SCT017 BKN076 16/12 A2971 RMK SLP062 DENSITY ALT 500FT
15:35
V
16 °C 9 mi 5.500 ft 250° 250° 10 - 15 kt METAR CYHU 271935Z AUTO 25010G15KT 9SM SCT017 BKN055 OVC070 16/14 A2970 RMK SLP059 DENSITY ALT 500FT
15:08
V
14 °C 9 mi 3.200 ft 250° 250° 13 kt METAR CYHU 271908Z AUTO 25013KT 9SM -RA SCT015 BKN032 BKN046 OVC068 14/12 A2970 RMK SLP059 DENSITY ALT 300FT
14:47
M
15 °C 9 mi 1.500 ft 240° 240° 12 kt METAR CYHU 271847Z AUTO 24012KT 9SM BKN015 BKN033 OVC044 15/13 A2969 RMK PCPN 0.5MM PAST HR SLP057 DENSITY ALT 400FT
14:38
V
14 °C 9 mi 3.200 ft 230° 230° 13 kt METAR CYHU 271838Z AUTO 23013KT 9SM SCT013 BKN032 BKN046 OVC071 14/13 A2969 RMK PCPN 0.5MM PAST HR SLP056 DENSITY ALT 300FT
14:31
V
14 °C 7 mi 3.200 ft 220° 220° 12 - 18 kt METAR CYHU 271831Z AUTO 22012G18KT 7SM -RA SCT015 BKN032 OVC049 14/13 A2969 RMK PCPN 0.5MM PAST HR SLP056 DENSITY ALT 300FT
14:27
I
14 °C 3 mi 3.000 ft 220° 220° 14 kt METAR CYHU 271827Z AUTO 22014KT 3SM -RA BR SCT015 BKN030 BKN038 OVC055 14/12 A2969 RMK PCPN 0.5MM PAST HR SLP056 DENSITY ALT 300FT
14:21
I
14 °C 2½ mi 3.400 ft 230° 230° 10 - 20 kt METAR CYHU 271821Z AUTO 23010G20KT 2 1/2SM -RA BR FEW015 SCT027 BKN034 OVC050 14/12 A2969 RMK PCPN 0.5MM PAST HR SLP055 DENSITY ALT 200FT
14:17
V
14 °C 5 mi 3.200 ft 230° 230° 15 - 20 kt METAR CYHU 271817Z AUTO 23015G20KT 5SM -RA BR FEW015 SCT027 BKN032 OVC050 14/12 A2969 RMK SLP055 DENSITY ALT 300FT
14:00
V
14 °C 9 mi 3.200 ft 220° 220° 10 - 15 kt METAR CYHU 271800Z AUTO 22010G15KT 9SM -RA SCT015 BKN032 OVC046 14/12 A2968 RMK PCPN 1.0MM PAST HR SLP054 DENSITY ALT 300FT
13:58
V
14 °C 9 mi 3.200 ft 220° 220° 10 - 15 kt METAR CYHU 271758Z AUTO 22010G15KT 9SM -RA SCT015 SCT020 BKN032 OVC046 14/12 A2968 RMK PCPN 1.0MM PAST HR SLP054 DENSITY ALT 300FT
13:38
M
14 °C 9 mi 1.700 ft 220° 220° 11 - 18 kt METAR CYHU 271738Z AUTO 22011G18KT 9SM -RA BKN017 BKN028 BKN034 OVC043 14/12 A2968 RMK PCPN 0.5MM PAST HR SLP054 DENSITY ALT 300FT
13:32
M
14 °C 9 mi 2.600 ft 210° 210° 13 - 18 kt METAR CYHU 271732Z AUTO 21013G18KT 9SM -RA SCT017 BKN026 BKN034 OVC043 14/12 A2968 RMK PCPN 0.5MM PAST HR SLP053 DENSITY ALT 300FT
13:28
M
14 °C 9 mi 2.500 ft 220° 220° 12 - 17 kt METAR CYHU 271728Z AUTO 22012G17KT 9SM SCT017 BKN025 BKN035 OVC041 14/12 A2968 RMK PCPN 0.5MM PAST HR SLP053 DENSITY ALT 300FT
13:20
M
14 °C 6 mi 1.700 ft 210° 210° 10 - 17 kt METAR CYHU 271720Z AUTO 21010G17KT 6SM -RA BR BKN017 OVC041 14/12 A2968 RMK PCPN 0.5MM PAST HR SLP053 DENSITY ALT 300FT
13:14
M
14 °C 5 mi 1.700 ft 220° 220° 10 - 18 kt METAR CYHU 271714Z AUTO 22010G18KT 5SM -RA BR OVC017 14/12 A2968 RMK PCPN 0.5MM PAST HR SLP054 DENSITY ALT 300FT
13:00
M
14 °C 9 mi 1.900 ft 230° 230° 12 kt METAR CYHU 271700Z AUTO 23012KT 9SM BKN019 OVC026 14/12 A2968 RMK SLP053 DENSITY ALT 300FT
12:57
M
14 °C 9 mi 1.900 ft 240° 240° 10 - 16 kt METAR CYHU 271657Z AUTO 24010G16KT 180V250 9SM BKN019 OVC024 14/12 A2968 RMK SLP053 DENSITY ALT 300FT
12:40
M
15 °C 9 mi 2.200 ft 190° 190° 12 - 18 kt METAR CYHU 271640Z AUTO 19012G18KT 9SM BKN022 BKN030 BKN039 OVC048 15/11 A2967 RMK SLP050 DENSITY ALT 500FT
12:00
V
15 °C 9 mi 3.300 ft 190° 190° 13 - 19 kt METAR CYHU 271600Z AUTO 19013G19KT 9SM BKN033 BKN044 OVC049 15/13 A2966 RMK SLP047 DENSITY ALT 500FT
11:27
M
13 °C 9 mi 2.800 ft 170° 170° 8 kt METAR CYHU 271527Z AUTO 17008KT 9SM BKN028 OVC035 13/12 A2966 RMK SLP046 DENSITY ALT 300FT
11:12
V
13 °C 6 mi 3.000 ft 160° 160° 9 kt METAR CYHU 271512Z AUTO 16009KT 6SM -RA BR SCT023 OVC030 13/12 A2966 RMK SLP046 DENSITY ALT 200FT
11:00
I
13 °C 3 mi 2.500 ft 170° 170° 8 kt METAR CYHU 271500Z AUTO 17008KT 3SM RA BR BKN025 OVC032 13/12 A2966 RMK PCPN 1.8MM PAST HR SLP046 DENSITY ALT 200FT
10:55
M
13 °C 5 mi 2.800 ft 180° 180° 7 kt METAR CYHU 271455Z AUTO 18007KT 5SM RA BR SCT023 BKN028 OVC033 13/11 A2966 RMK PCPN 1.2MM PAST HR SLP046 DENSITY ALT 200FT
10:51
V
13 °C 6 mi 3.000 ft 180° 180° 7 - 17 kt METAR CYHU 271451Z AUTO 18007G17KT 6SM RA BR SCT023 OVC030 13/11 A2966 RMK PCPN 0.8MM PAST HR SLP046 DENSITY ALT 200FT
10:42
V
13 °C 5 mi 3.000 ft 180° 180° 14 kt METAR CYHU 271442Z AUTO 18014KT 5SM -RA BR SCT023 OVC030 13/11 A2965 RMK SLP044 DENSITY ALT 200FT
10:25
V
13 °C 9 mi 3.000 ft 160° 160° 9 kt METAR CYHU 271425Z AUTO 16009KT 9SM OVC030 13/11 A2965 RMK SLP042 DENSITY ALT 200FT
10:00
V
13 °C 6 mi 3.200 ft 150° 150° 8 kt METAR CYHU 271400Z AUTO 15008KT 6SM -RA BR OVC032 13/11 A2965 RMK PCPN 0.8MM PAST HR SLP041 DENSITY ALT 200FT
09:40
V
12 °C 6 mi 3.200 ft 170° 170° 9 kt METAR CYHU 271340Z AUTO 17009KT 6SM -RA BR OVC032 12/11 A2965 RMK PCPN 0.5MM PAST HR SLP041 DENSITY ALT 200FT
09:30
V
12 °C 5 mi 3.400 ft 170° 170° 9 kt METAR CYHU 271330Z AUTO 17009KT 5SM -RA BR OVC034 12/11 A2964 RMK SLP040 DENSITY ALT 200FT
09:24
V
12 °C 8 mi 3.400 ft 170° 170° 6 kt METAR CYHU 271324Z AUTO 17006KT 8SM -RA OVC034 12/11 A2964 RMK SLP040 DENSITY ALT 200FT
09:18
V
12 °C 9 mi 3.400 ft 160° 160° 6 kt METAR CYHU 271318Z AUTO 16006KT 9SM OVC034 12/11 A2964 RMK SLP040 DENSITY ALT 100FT
09:05
V
12 °C 9 mi 3.600 ft 150° 150° 6 kt METAR CYHU 271305Z AUTO 15006KT 9SM -RA OVC036 12/11 A2964 RMK SLP039 DENSITY ALT 100FT
09:00
V
12 °C 9 mi 3.600 ft 140° 140° 7 kt METAR CYHU 271300Z AUTO 14007KT 9SM OVC036 12/11 A2964 RMK SLP039 DENSITY ALT 100FT
08:38
V
12 °C 9 mi 3.600 ft 140° 140° 7 kt METAR CYHU 271238Z AUTO 14007KT 9SM OVC036 12/11 A2964 RMK SLP039 DENSITY ALT 100FT
08:18
V
12 °C 6 mi 3.600 ft 160° 160° 7 kt METAR CYHU 271218Z AUTO 16007KT 6SM -RA BR OVC036 12/11 A2964 RMK SLP038 DENSITY ALT 100FT
08:04
V
12 °C 5 mi 3.400 ft 160° 160° 7 kt METAR CYHU 271204Z AUTO 16007KT 5SM -RA BR BKN034 OVC041 12/11 A2964 RMK SLP040 DENSITY ALT 100FT
08:00
V
12 °C 7 mi 3.600 ft 160° 160° 7 kt METAR CYHU 271200Z AUTO 16007KT 7SM -RA OVC036 12/11 A2964 RMK PCPN 0.8MM PAST HR SLP040 DENSITY ALT 100FT
07:23
V
12 °C 9 mi 4.000 ft 150° 150° 7 kt METAR CYHU 271123Z AUTO 15007KT 9SM -RA OVC040 12/10 A2963 RMK SLP037 DENSITY ALT 100FT
07:00
V
12 °C 9 mi 4.500 ft 150° 150° 8 kt METAR CYHU 271100Z AUTO 15008KT 9SM OVC045 12/11 A2963 RMK SLP037 DENSITY ALT 100FT
06:00
V
12 °C 9 mi 4.100 ft 150° 150° 6 kt METAR CYHU 271000Z AUTO 15006KT 9SM OVC041 12/11 A2962 RMK SLP032 DENSITY ALT 200FT
05:00
V
13 °C 9 mi 3.900 ft 170° 170° 6 kt METAR CYHU 270900Z AUTO 17006KT 9SM OVC039 13/12 A2962 RMK SLP031 DENSITY ALT 200FT
04:01
V
13 °C 9 mi 3.900 ft 160° 160° 8 kt METAR CYHU 270801Z AUTO 16008KT 9SM OVC039 13/12 A2962 RMK SLP033 DENSITY ALT 200FT
04:00
V
13 °C 9 mi 3.900 ft 160° 160° 8 kt METAR CYHU 270800Z AUTO 16008KT 9SM -RA OVC039 13/12 A2962 RMK SLP034 DENSITY ALT 200FT
03:51
V
13 °C 9 mi 3.900 ft 150° 150° 7 kt METAR CYHU 270751Z AUTO 15007KT 9SM -RA OVC039 13/12 A2962 RMK SLP034 DENSITY ALT 200FT
03:27
V
13 °C 9 mi 3.900 ft 150° 150° 5 kt METAR CYHU 270727Z AUTO 15005KT 9SM -RA OVC039 13/12 A2962 RMK SLP034 DENSITY ALT 200FT
03:23
V
13 °C 9 mi 3.900 ft 160° 160° 6 kt METAR CYHU 270723Z AUTO 16006KT 9SM OVC039 13/12 A2962 RMK SLP034 DENSITY ALT 200FT
03:11
V
13 °C 9 mi 3.900 ft 160° 160° 6 kt METAR CYHU 270711Z AUTO 16006KT 9SM -RA OVC039 13/11 A2963 RMK SLP035 DENSITY ALT 200FT
03:04
V
13 °C 9 mi 3.900 ft 170° 170° 7 kt METAR CYHU 270704Z AUTO 17007KT 9SM BKN039 OVC055 13/11 A2963 RMK SLP035 DENSITY ALT 200FT
03:00
V
13 °C 9 mi 3.900 ft 170° 170° 7 kt METAR CYHU 270700Z AUTO 17007KT 9SM -RA BKN039 OVC050 13/11 A2963 RMK SLP035 DENSITY ALT 200FT
02:03
V
13 °C 9 mi 8.100 ft 170° 170° 9 kt METAR CYHU 270603Z AUTO 17009KT 9SM -RA FEW071 BKN081 BKN093 OVC120 13/11 A2964 RMK SLP038 DENSITY ALT 200FT
01:00
V
13 °C 9 mi - 170° 170° 7 kt METAR CYHU 270500Z AUTO 17007KT 9SM FEW055 13/12 A2963 RMK PCPN 1.0MM PAST HR SLP035 DENSITY ALT 200FT
00:45
V
13 °C 9 mi - 160° 160° 6 kt METAR CYHU 270445Z AUTO 16006KT 9SM SCT040 SCT050 SCT060 13/12 A2962 RMK PCPN 1.0MM PAST HR SLP033 DENSITY ALT 200FT
00:30
V
13 °C 6 mi 3.700 ft 190° 190° 4 kt METAR CYHU 270430Z AUTO 19004KT 6SM -RA BR BKN037 BKN050 OVC066 13/12 A2963 RMK PCPN 0.8MM PAST HR SLP035 DENSITY ALT 200FT
00:26
V
13 °C 7 mi 5.000 ft 200° 200° 6 kt METAR CYHU 270426Z AUTO 20006KT 7SM +RA SCT037 BKN050 BKN060 OVC076 13/12 A2963 RMK PCPN 0.8MM PAST HR SLP035 DENSITY ALT 200FT
00:16
V
13 °C 9 mi 6.600 ft 170° 170° 7 kt METAR CYHU 270416Z AUTO 17007KT 9SM BKN066 OVC077 13/12 A2962 RMK SLP034 DENSITY ALT 200FT
00:02
V
13 °C 9 mi 7.500 ft 170° 170° 9 kt METAR CYHU 270402Z AUTO 17009KT 9SM -RA FEW060 OVC075 13/12 A2963 RMK SLP035 DENSITY ALT 200FT

2022年9月26日

时间 代码 天气 温度 能见度 天花板 METAR/SPECI
23:01
V
12 °C 9 mi 8.600 ft 150° 150° 5 kt METAR CYHU 270301Z AUTO 15005KT 9SM BKN086 12/12 A2962 RMK SLP033 DENSITY ALT 200FT
23:00
V
12 °C 9 mi 8.600 ft 160° 160° 6 kt METAR CYHU 270300Z AUTO 16006KT 9SM -RA OVC086 12/12 A2962 RMK SLP033 DENSITY ALT 200FT
22:49
V
12 °C 9 mi 8.600 ft 150° 150° 4 kt METAR CYHU 270249Z AUTO 15004KT 9SM -RA OVC086 12/12 A2962 RMK SLP033 DENSITY ALT 200FT
22:00
V
12 °C 9 mi - 170° 170° 6 kt METAR CYHU 270200Z AUTO 17006KT 9SM FEW071 SCT110 12/12 A2962 RMK SLP031 DENSITY ALT 200FT
21:00
V
13 °C 9 mi 11.000 ft 190° 190° 4 kt METAR CYHU 270100Z AUTO 19004KT 9SM BKN110 13/12 A2962 RMK SLP031 DENSITY ALT 300FT
20:15
V
14 °C 9 mi 7.600 ft 210° 210° 5 kt METAR CYHU 270015Z AUTO 21005KT 9SM BKN076 OVC099 14/12 A2962 RMK SLP031 DENSITY ALT 400FT
20:03
V
14 °C 9 mi 7.100 ft 220° 220° 5 kt METAR CYHU 270003Z AUTO 22005KT 9SM -RA BKN071 OVC087 14/12 A2961 RMK PRESRR SLP029 DENSITY ALT 400FT
19:34
V
14 °C 9 mi 8.000 ft 240° 240° 6 kt METAR CYHU 262334Z AUTO 24006KT 9SM SCT066 BKN080 BKN100 OVC170 14/13 A2959 RMK SLP023 DENSITY ALT 400FT
19:13
V
13 °C 9 mi 9.100 ft 180° 180° 2 kt METAR CYHU 262313Z AUTO 18002KT 9SM -RA BKN091 OVC110 13/13 A2959 RMK SLP023 DENSITY ALT 300FT
19:00
V
13 °C 9 mi 9.600 ft Var Var 2 kt METAR CYHU 262300Z AUTO VRB02KT 9SM OVC096 13/13 A2959 RMK LTNG DIST NE PCPN 2.8MM PAST HR SLP022 DENSITY ALT 300FT
18:53
V
14 °C 9 mi 10.000 ft 240° 240° 3 kt METAR CYHU 262253Z AUTO 24003KT 9SM SCT081 OVC100 14/13 A2958 RMK LTNG DIST NE E PCPN 2.8MM PAST HR SLP020 DENSITY ALT 400FT
18:33
V
13 °C 9 mi 7.600 ft 260° 260° 3 kt METAR CYHU 262233Z AUTO 26003KT 9SM -RA FEW027 SCT039 BKN076 OVC095 13/12 A2958 RMK LTNG DIST N NE E PCPN 2.8MM PAST HR SLP020 DENSITY ALT 400FT
18:21
V
13 °C 6 mi 4.100 ft Var Var 2 kt METAR CYHU 262221Z AUTO VRB02KT 6SM -RA VCTS BR FEW022 SCT029 BKN041 OVC066 13/12 A2959 RMK LTNG DIST N NE E PCPN 2.5MM PAST HR SLP021 DENSITY ALT 300FT
18:12
V
13 °C 6 mi 3.900 ft 260° 260° 5 kt METAR CYHU 262212Z AUTO 26005KT 200V290 6SM -TSRA BR FEW029 BKN039 OVC046 13/12 A2959 RMK LTNG DIST N NE E PCPN 1.8MM PAST HR SLP022 DENSITY ALT 300FT
18:05
V
13 °C 5 mi 3.500 ft 230° 230° 5 kt METAR CYHU 262205Z AUTO 23005KT 190V310 5SM +TSRA BR FEW029 BKN035 BKN045 OVC066 13/12 A2958 RMK LTNG DIST N NE PRESRR PCPN 1.3MM PAST HR SLP020 DENSITY ALT 300FT
18:04
V
13 °C 5 mi 3.500 ft 250° 250° 4 kt METAR CYHU 262204Z AUTO 25004KT 190V320 5SM TSRA BR FEW011 BKN035 OVC066 13/12 A2958 RMK LTNG DIST N NE PRESRR PCPN 1.3MM PAST HR SLP020 DENSITY ALT 300FT
17:55
I
13 °C 2 mi 3.300 ft Var Var 5 kt METAR CYHU 262155Z AUTO VRB05KT 2SM -TSRA BR FEW011 SCT028 OVC033 13/12 A2957 RMK VIS VRB 3/4-3 LTNG DIST ALQDS PRESFR PCPN 24.4MM PAST HR SLP017 DENSITY ALT 300FT
17:41
L
13 °C ¾ mi 2.100 ft Var Var 10 - 33 kt METAR CYHU 262141Z AUTO VRB10G33KT 3/4SM R24R/2800VP6000FT/ +TSRA BR SCT009 BKN021 BKN028 OVC071 13/11 A2959 RMK LTNG DIST SW NW PRESRR PCPN 19.6MM PAST HR SLP024 DENSITY ALT 300FT
17:39
I
14 °C 1½ mi 2.800 ft 210° 210° 26 - 33 kt METAR CYHU 262139Z AUTO 21026G33KT 190V300 1 1/2SM +TSRA SCT009 SCT021 BKN028 OVC071 14/11 A2959 RMK VIS VRB 1/2-3 LTNG DIST SW NW PRESRR PCPN 15.0MM PAST HR SLP022 DENSITY ALT 400FT
17:24
V
17 °C 9 mi 4.000 ft 330° 330° 8 kt METAR CYHU 262124Z AUTO 33008KT 9SM -TSRA SCT030 BKN040 OVC071 17/13 A2953 RMK LTNG DIST SW SLP003 DENSITY ALT 800FT
17:14
V
17 °C 9 mi 3.700 ft 010° 010° 5 kt METAR CYHU 262114Z AUTO 01005KT 9SM TS FEW028 BKN037 BKN044 OVC076 17/13 A2953 RMK LTNG DIST SW SLP003 DENSITY ALT 900FT
17:00
V
18 °C 9 mi 8.100 ft 350° 350° 4 kt METAR CYHU 262100Z AUTO 35004KT 9SM SCT030 SCT044 BKN081 OVC100 18/13 A2954 RMK LTNG DIST W SLP004 DENSITY ALT 900FT
16:00
V
18 °C 9 mi 4.900 ft Var 000° 0 kt METAR CYHU 262000Z AUTO 00000KT 9SM SCT042 BKN049 BKN091 18/12 A2953 RMK SLP002 DENSITY ALT 1000FT
15:00
V
18 °C 9 mi 8.100 ft Var Var 2 kt METAR CYHU 261900Z AUTO VRB02KT 9SM FEW032 BKN081 18/12 A2954 RMK SLP005 DENSITY ALT 1000FT
14:00
V
18 °C 9 mi 5.500 ft 100° 100° 3 kt METAR CYHU 261800Z AUTO 10003KT 080V210 9SM SCT021 BKN055 BKN069 BKN097 18/13 A2954 RMK SLP004 DENSITY ALT 1000FT
13:32
V
17 °C 9 mi 5.500 ft 220° 220° 5 kt METAR CYHU 261732Z AUTO 22005KT 180V270 9SM SCT021 OVC055 17/13 A2954 RMK SLP005 DENSITY ALT 900FT
12:59
M
17 °C 9 mi 1.800 ft Var Var 6 kt METAR CYHU 261659Z AUTO VRB06KT 9SM BKN018 BKN025 OVC091 17/13 A2955 RMK SLP008 DENSITY ALT 800FT
12:58
M
17 °C 9 mi 2.500 ft Var Var 6 kt METAR CYHU 261658Z AUTO VRB06KT 9SM SCT018 BKN025 OVC091 17/13 A2955 RMK SLP008 DENSITY ALT 800FT
12:09
V
15 °C 9 mi 8.600 ft 170° 170° 3 kt METAR CYHU 261609Z AUTO 17003KT 140V210 9SM SCT012 BKN086 15/13 A2955 RMK SLP010 DENSITY ALT 600FT
11:55
M
15 °C 9 mi 1.200 ft 170° 170° 6 kt METAR CYHU 261555Z AUTO 17006KT 140V200 9SM BKN012 BKN025 BKN030 OVC081 15/13 A2956 RMK SLP012 DENSITY ALT 600FT
11:41
M
15 °C 9 mi 2.600 ft 160° 160° 5 kt METAR CYHU 261541Z AUTO 16005KT 9SM SCT012 BKN026 OVC086 15/13 A2956 RMK SLP012 DENSITY ALT 500FT
11:39
M
15 °C 9 mi 2.600 ft 140° 140° 5 kt METAR CYHU 261539Z AUTO 14005KT 130V200 9SM -RA SCT012 OVC026 15/13 A2956 RMK SLP012 DENSITY ALT 500FT
11:11
M
15 °C 9 mi 1.200 ft 170° 170° 4 kt METAR CYHU 261511Z AUTO 17004KT 140V200 9SM -RA OVC012 15/12 A2957 RMK SLP014 DENSITY ALT 500FT
11:00
M
15 °C 9 mi 1.200 ft 160° 160° 5 kt METAR CYHU 261500Z AUTO 16005KT 9SM BKN012 OVC017 15/12 A2957 RMK SLP014 DENSITY ALT 500FT
较旧的数据

我们和第三方通过cookies跟踪您在我们网站上的上网行为。如果您继续,我们认为您同意我们的cookie政策。 了解更多